GRZ502 Details

Departure: Juneau International Airport (PAJN)
Arrival: Ted Stevens Anchorage International Airport (PANC)
Route: CHLKT1 ALATY JOH WITTI4


Current Weather Information
PAJN 212153Z 25012KT 10SM FEW090 FEW130 21/08 A2993 RMK AO2 SLP135 T02060083
PANC 212153Z 34005KT 10SM FEW030 SCT200 13/06 A3006 RMK AO2 SLP179 T01280056 $